Rechercher aéroport 
image banner adimage banner adimage banner ad
image banner ad

80CL - Blythe Service Center

Situé à Blythe, United States

ICAO - 80CL, IATA -

Données fournies par Airmate  

Information générale

Coordonnées: N33°36'18" W114°36'8"
Élévation : 297 feet MSL.
Variation magnétique : 13° East
Voir autres Aéroports à California

Données opérationnelles

Special qualification required
Heure actuelle UTC:
Heure actuelle locale:
Météo à : KBLH - Blythe ( 11 km )
TAF: KBLH 240520Z 2406/2506 21005KT P6SM FEW200 SCT250 FM240800 29004KT P6SM SCT250 FM241400 34004KT P6SM SCT250 FM241700 16004KT P6SM FEW250 FM242100 20010KT P6SM FEW250 FM250300 23007KT P6SM FEW250
Voir NOTAMs / SUP AIP / TFR affectant cet aéroport [VIEW]
Fréquences de communication: [VIEW]

Pistes:

Coordonnées de l'aéroport

Adresse: Blythe United States

Vue satellite de 80CL